createdAt,value
2022-09-09T00:04:42.967Z,16.84
2022-09-09T00:09:55.284Z,16.76
2022-09-09T00:15:09.398Z,16.70
2022-09-09T00:20:33.682Z,16.61
2022-09-09T00:25:59.508Z,16.51
2022-09-09T00:31:13.938Z,16.42
2022-09-09T00:36:21.384Z,16.34
2022-09-09T00:41:48.974Z,16.27
2022-09-09T00:47:31.433Z,16.21
2022-09-09T00:52:45.015Z,16.16
2022-09-09T00:57:53.332Z,16.13
2022-09-09T01:03:18.705Z,16.09
2022-09-09T01:08:25.066Z,16.02
2022-09-09T01:13:37.456Z,15.94
2022-09-09T01:18:50.827Z,15.86
2022-09-09T01:24:26.959Z,15.77
2022-09-09T01:29:50.363Z,15.77
2022-09-09T01:34:56.464Z,15.83
2022-09-09T01:40:00.213Z,15.86
2022-09-09T01:45:04.089Z,15.85
2022-09-09T01:50:14.609Z,15.84
2022-09-09T01:55:18.068Z,15.80
2022-09-09T02:00:22.252Z,15.77
2022-09-09T02:05:55.744Z,15.71
2022-09-09T02:11:10.718Z,15.67
2022-09-09T02:16:24.549Z,15.61
2022-09-09T02:21:30.471Z,15.53
2022-09-09T02:26:35.236Z,15.45
2022-09-09T02:31:42.662Z,15.38
2022-09-09T02:36:49.702Z,15.33
2022-09-09T02:41:54.126Z,15.27
2022-09-09T02:47:16.141Z,15.22
2022-09-09T02:52:34.375Z,15.16
2022-09-09T02:57:43.707Z,15.11
2022-09-09T03:02:48.028Z,15.04
2022-09-09T03:08:12.002Z,14.95
2022-09-09T03:13:16.576Z,14.90
2022-09-09T03:18:20.656Z,14.90
2022-09-09T03:23:26.320Z,14.88
2022-09-09T03:28:40.250Z,14.84
2022-09-09T03:33:47.405Z,14.80
2022-09-09T03:38:55.970Z,14.73
2022-09-09T03:44:10.208Z,14.66
2022-09-09T03:49:17.969Z,14.58
2022-09-09T03:54:21.263Z,14.52
2022-09-09T03:59:25.103Z,14.45
2022-09-09T04:04:30.047Z,14.41
2022-09-09T04:09:34.827Z,14.47
2022-09-09T04:14:38.704Z,14.46
2022-09-09T04:19:43.623Z,14.43
2022-09-09T04:24:48.939Z,14.40
2022-09-09T04:29:53.784Z,14.41
2022-09-09T04:34:57.195Z,14.42
2022-09-09T04:40:03.383Z,14.44
2022-09-09T04:45:08.168Z,14.50
2022-09-09T04:50:11.812Z,14.58
2022-09-09T04:55:16.226Z,14.68
2022-09-09T05:00:26.255Z,14.78
2022-09-09T05:05:33.875Z,14.88
2022-09-09T05:10:45.243Z,15.00
2022-09-09T05:16:05.311Z,15.16
2022-09-09T05:21:12.419Z,15.36
2022-09-09T05:26:19.472Z,15.58
2022-09-09T05:31:25.923Z,15.86
2022-09-09T05:36:31.112Z,16.08
2022-09-09T05:41:38.798Z,16.30
2022-09-09T05:46:42.875Z,16.57
2022-09-09T05:51:46.446Z,16.85
2022-09-09T05:56:52.149Z,17.09
2022-09-09T06:01:56.071Z,17.28
2022-09-09T06:07:22.102Z,17.52
2022-09-09T06:12:29.878Z,17.73
2022-09-09T06:17:33.683Z,17.93
2022-09-09T06:22:37.561Z,18.14
2022-09-09T06:27:40.714Z,18.30
2022-09-09T06:32:47.204Z,18.51
2022-09-09T06:37:50.880Z,18.73
2022-09-09T06:42:55.046Z,18.91
2022-09-09T06:48:13.085Z,19.21
2022-09-09T06:53:23.301Z,19.55
2022-09-09T06:58:27.461Z,19.93
2022-09-09T07:03:31.567Z,20.39
2022-09-09T07:08:36.290Z,20.75
2022-09-09T07:13:40.186Z,21.17
2022-09-09T07:18:47.146Z,21.65
2022-09-09T07:23:59.246Z,22.00
2022-09-09T07:29:03.821Z,22.21
2022-09-09T07:34:08.615Z,22.38
2022-09-09T07:39:19.757Z,22.65
2022-09-09T07:44:26.448Z,22.76
2022-09-09T07:49:41.556Z,22.82
2022-09-09T07:54:53.962Z,22.97
2022-09-09T07:59:58.716Z,23.07
2022-09-09T08:05:02.980Z,23.18
2022-09-09T08:10:10.598Z,23.26
2022-09-09T08:15:16.934Z,23.55
2022-09-09T08:20:21.096Z,23.70
2022-09-09T08:25:24.876Z,23.75
2022-09-09T08:30:34.807Z,23.97
2022-09-09T08:35:41.619Z,23.97
2022-09-09T08:40:50.469Z,23.82
2022-09-09T08:46:02.400Z,23.69
2022-09-09T08:51:09.155Z,23.65
2022-09-09T08:56:19.972Z,23.75
2022-09-09T09:02:05.374Z,23.88
2022-09-09T09:07:34.843Z,23.99
2022-09-09T09:12:44.203Z,24.05
2022-09-09T09:17:49.849Z,24.01
2022-09-09T09:22:56.141Z,23.95
2022-09-09T09:28:08.031Z,23.97
2022-09-09T09:33:29.329Z,23.73
2022-09-09T09:44:00.651Z,23.38
2022-09-09T09:49:06.877Z,23.40
2022-09-09T09:54:14.567Z,23.35
2022-09-09T09:59:40.799Z,23.37
2022-09-09T10:05:14.374Z,23.71
2022-09-09T10:10:34.262Z,24.38
2022-09-09T10:15:53.819Z,24.57
2022-09-09T10:21:14.300Z,24.47
2022-09-09T10:26:31.772Z,24.31
2022-09-09T10:31:43.572Z,24.06
2022-09-09T10:36:50.426Z,23.95
2022-09-09T10:42:03.537Z,24.17
2022-09-09T10:47:38.665Z,24.47
2022-09-09T10:53:20.272Z,24.63
2022-09-09T10:58:45.319Z,24.67
2022-09-09T11:03:53.944Z,24.75
2022-09-09T11:09:02.579Z,24.68
2022-09-09T11:14:13.337Z,24.53
2022-09-09T11:19:35.780Z,24.51
2022-09-09T11:24:43.190Z,24.51
2022-09-09T11:30:06.388Z,24.61
2022-09-09T11:35:33.979Z,24.76
2022-09-09T11:40:37.199Z,24.93
2022-09-09T11:45:42.492Z,24.89
2022-09-09T11:50:47.181Z,24.88
2022-09-09T11:56:09.556Z,25.23
2022-09-09T12:01:37.291Z,25.37
2022-09-09T12:06:49.731Z,25.36
2022-09-09T12:11:53.178Z,25.35
2022-09-09T12:16:56.662Z,25.29
2022-09-09T12:22:07.370Z,25.14
2022-09-09T12:27:58.668Z,25.07
2022-09-09T12:33:07.934Z,25.26
2022-09-09T12:38:28.498Z,25.59
2022-09-09T12:43:32.083Z,25.93
2022-09-09T12:48:43.344Z,26.05
2022-09-09T12:53:47.277Z,26.09
2022-09-09T12:58:55.402Z,26.20
2022-09-09T13:04:00.145Z,26.16
2022-09-09T13:09:11.379Z,25.97
2022-09-09T13:14:32.785Z,25.69
2022-09-09T13:19:46.846Z,25.40
2022-09-09T13:25:00.702Z,25.45
2022-09-09T13:30:24.718Z,25.65
2022-09-09T13:35:30.908Z,25.72
2022-09-09T13:40:36.168Z,25.53
2022-09-09T13:45:39.535Z,25.38
2022-09-09T13:50:47.866Z,25.16
2022-09-09T13:55:53.409Z,25.12
2022-09-09T14:00:57.018Z,25.16
2022-09-09T14:06:00.244Z,25.19
2022-09-09T14:11:04.518Z,25.12
2022-09-09T14:16:12.944Z,24.99
2022-09-09T14:21:17.009Z,24.91
2022-09-09T14:26:25.033Z,24.83
2022-09-09T14:31:28.440Z,24.77
2022-09-09T14:36:31.791Z,24.68
2022-09-09T14:41:37.264Z,24.66
2022-09-09T14:46:46.374Z,24.78
2022-09-09T14:51:59.951Z,24.97
2022-09-09T14:57:07.234Z,25.09
2022-09-09T15:02:15.349Z,25.11
2022-09-09T15:07:22.069Z,25.15
2022-09-09T15:12:28.682Z,25.09
2022-09-09T15:17:35.808Z,24.97
2022-09-09T15:22:50.804Z,24.77
2022-09-09T15:27:54.626Z,24.54
2022-09-09T15:32:57.952Z,24.38
2022-09-09T15:38:04.421Z,24.26
2022-09-09T15:43:10.747Z,24.07
2022-09-09T15:48:17.330Z,23.89
2022-09-09T15:53:21.550Z,23.66
2022-09-09T15:58:24.919Z,23.29
2022-09-09T16:03:28.155Z,22.98
2022-09-09T16:08:39.016Z,22.76
2022-09-09T16:13:46.804Z,22.56
2022-09-09T16:18:59.419Z,22.38
2022-09-09T16:24:05.096Z,22.21
2022-09-09T16:29:28.436Z,22.06
2022-09-09T16:35:08.584Z,21.89
2022-09-09T16:40:21.789Z,21.85
2022-09-09T16:45:25.201Z,22.13
2022-09-09T16:50:28.481Z,22.25
2022-09-09T16:55:34.420Z,22.29
2022-09-09T17:00:51.795Z,22.24
2022-09-09T17:06:02.160Z,22.10
2022-09-09T17:11:29.082Z,21.86
2022-09-09T17:16:43.322Z,21.70
2022-09-09T17:27:11.914Z,21.58
2022-09-09T17:32:15.728Z,21.51
2022-09-09T17:37:25.202Z,21.37
2022-09-09T17:42:29.473Z,21.16
2022-09-09T17:47:34.333Z,20.96
2022-09-09T17:52:39.091Z,20.82
2022-09-09T17:57:50.914Z,20.73
2022-09-09T18:02:57.878Z,20.70
2022-09-09T18:08:01.654Z,20.69
2022-09-09T18:13:16.815Z,20.68
2022-09-09T18:18:21.407Z,20.64
2022-09-09T18:23:26.433Z,20.61
2022-09-09T18:28:37.643Z,20.57
2022-09-09T18:33:55.766Z,20.53
2022-09-09T18:39:06.899Z,20.47
2022-09-09T18:44:23.087Z,20.42
2022-09-09T18:49:38.298Z,20.41
2022-09-09T18:54:46.309Z,20.41
2022-09-09T18:59:52.394Z,20.34
2022-09-09T19:05:04.740Z,20.25
2022-09-09T19:10:08.553Z,20.14
2022-09-09T19:15:19.415Z,20.03
2022-09-09T19:20:24.645Z,19.96
2022-09-09T19:25:28.048Z,19.87
2022-09-09T19:30:37.892Z,19.82
2022-09-09T19:35:42.179Z,19.74
2022-09-09T19:40:48.193Z,19.65
2022-09-09T19:45:59.256Z,19.55
2022-09-09T19:51:09.840Z,19.45
2022-09-09T19:56:14.028Z,19.36
2022-09-09T20:01:56.946Z,19.31
2022-09-09T20:07:19.779Z,19.25
2022-09-09T20:12:23.140Z,19.23
2022-09-09T20:17:26.630Z,19.13
2022-09-09T20:22:30.093Z,18.67
2022-09-09T20:27:33.882Z,18.24
2022-09-09T20:32:37.111Z,18.00
2022-09-09T20:37:41.319Z,17.89
2022-09-09T20:42:52.595Z,17.81
2022-09-09T20:47:57.905Z,17.80
2022-09-09T20:53:01.013Z,17.81
2022-09-09T20:58:04.570Z,17.83
2022-09-09T21:03:07.853Z,17.85
2022-09-09T21:08:12.094Z,17.83
2022-09-09T21:13:15.372Z,17.77
2022-09-09T21:18:19.338Z,17.68
2022-09-09T21:23:23.021Z,17.66
2022-09-09T21:28:27.306Z,17.62
2022-09-09T21:33:30.702Z,17.56
2022-09-09T21:38:39.575Z,17.45
2022-09-09T21:43:54.515Z,17.27
2022-09-09T21:48:58.599Z,17.06
2022-09-09T21:54:04.744Z,16.94
2022-09-09T21:59:08.433Z,16.83
2022-09-09T22:04:17.053Z,16.74
2022-09-09T22:09:20.563Z,16.62
2022-09-09T22:14:27.572Z,16.51
2022-09-09T22:19:32.247Z,16.42
2022-09-09T22:24:36.105Z,16.38
2022-09-09T22:29:42.920Z,16.36
2022-09-09T22:34:49.651Z,16.39
2022-09-09T22:39:53.691Z,16.43
2022-09-09T22:44:58.228Z,16.41
2022-09-09T22:50:04.431Z,16.38
2022-09-09T22:55:10.275Z,16.38
2022-09-09T23:00:16.891Z,16.36
2022-09-09T23:05:22.812Z,16.37
2022-09-09T23:10:33.308Z,16.38
2022-09-09T23:15:40.553Z,16.39
2022-09-09T23:20:43.978Z,16.42
2022-09-09T23:25:49.649Z,16.43
2022-09-09T23:30:53.169Z,16.44
2022-09-09T23:36:01.131Z,16.43
2022-09-09T23:41:06.318Z,16.46
2022-09-09T23:46:15.703Z,16.48
2022-09-09T23:51:24.068Z,16.52
2022-09-09T23:56:32.766Z,16.53
